Time;durP1;ratioP1;P1;durP2;ratioP2;P2;SDS_P1;SDS_P2;PMS_P1;PMS_P2;Temp;Humidity;BMP_temperature;BMP_pressure;BME280_temperature;BME280_humidity;BME280_pressure;Samples;Min_cycle;Max_cycle;Signal;HPM_P1;HPM_P2
2022/09/03 00:00:22;;;;;;;2.65;1.30;;;;;;;-144.48;100.00;62369.91;5018447;28;20029;-68
2022/09/03 00:03:16;;;;;;;6.57;1.50;;;;;;;-144.48;100.00;62369.91;5009364;28;20459;-67
2022/09/03 00:06:11;;;;;;;5.50;1.70;;;;;;;-144.48;100.00;62369.91;4999330;28;20038;-67
2022/09/03 00:08:59;;;;;;;3.70;1.45;;;;;;;-144.48;100.00;62369.91;4996258;28;20018;-67
2022/09/03 00:11:25;;;;;;;4.65;1.52;;;;;;;-144.48;100.00;62369.91;5006689;28;20404;-68
2022/09/03 00:13:57;;;;;;;4.72;1.60;;;;;;;-144.48;100.00;62369.91;5010251;28;20460;-69
2022/09/03 00:16:28;;;;;;;4.05;1.55;;;;;;;-144.48;100.00;62369.91;5009874;28;20022;-66
2022/09/03 00:19:01;;;;;;;3.78;1.75;;;;;;;-144.48;100.00;62369.91;5009806;28;20569;-67
2022/09/03 00:21:42;;;;;;;6.50;1.40;;;;;;;-144.48;100.00;62369.91;5010134;28;20038;-67
2022/09/03 00:24:12;;;;;;;4.78;2.03;;;;;;;-144.48;100.00;62369.91;5008945;28;20558;-66
2022/09/03 00:26:39;;;;;;;7.15;2.28;;;;;;;-144.48;100.00;62369.91;5009594;28;20026;-66
2022/09/03 00:29:22;;;;;;;6.68;2.30;;;;;;;-144.48;100.00;62369.91;5008857;28;20030;-66
2022/09/03 00:31:52;;;;;;;8.23;1.52;;;;;;;-144.48;100.00;62369.91;5009764;28;20533;-68
2022/09/03 00:34:29;;;;;;;8.90;1.67;;;;;;;-144.48;100.00;62369.91;5009800;28;20118;-67
2022/09/03 00:36:55;;;;;;;8.00;1.50;;;;;;;-144.48;100.00;62369.91;5008893;28;20032;-65
2022/09/03 00:39:23;;;;;;;5.15;1.73;;;;;;;-144.48;100.00;62369.91;5009232;28;20025;-67
2022/09/03 00:42:30;;;;;;;4.78;1.52;;;;;;;-144.48;100.00;62369.91;5007915;28;20424;-67
2022/09/03 00:45:05;;;;;;;4.47;1.77;;;;;;;-144.48;100.00;62369.91;4989964;28;20089;-68
2022/09/03 00:47:30;;;;;;;5.43;1.63;;;;;;;-144.48;100.00;62369.91;5008543;28;20164;-66
2022/09/03 00:50:08;;;;;;;3.78;1.60;;;;;;;-144.48;100.00;62369.91;5008597;28;20105;-67
2022/09/03 00:52:51;;;;;;;9.10;1.40;;;;;;;-144.48;100.00;62369.91;5002527;28;20484;-66
2022/09/03 00:55:46;;;;;;;3.17;1.40;;;;;;;-144.48;100.00;62369.91;4997950;28;20088;-67
2022/09/03 00:58:30;;;;;;;4.97;1.45;;;;;;;-144.48;100.00;62369.91;5009301;28;20102;-65
2022/09/03 01:00:55;;;;;;;7.78;1.58;;;;;;;-144.48;100.00;62369.91;5009236;28;20471;-68
2022/09/03 01:04:05;;;;;;;7.85;1.73;;;;;;;-144.48;100.00;62369.91;5008040;28;20022;-68
2022/09/03 01:06:48;;;;;;;4.22;1.52;;;;;;;-144.48;100.00;62369.91;5012543;28;20034;-67
2022/09/03 01:09:16;;;;;;;4.05;1.50;;;;;;;-144.48;100.00;62369.91;5012953;28;20162;-67
2022/09/03 01:12:31;;;;;;;5.15;1.33;;;;;;;-144.48;100.00;62369.91;5008901;28;20480;-69
2022/09/03 01:15:10;;;;;;;11.52;1.50;;;;;;;-144.48;100.00;62369.91;4993896;28;20145;-66
2022/09/03 01:18:12;;;;;;;4.50;1.48;;;;;;;-144.48;100.00;62369.91;5010876;28;20029;-67
2022/09/03 01:20:58;;;;;;;4.80;1.70;;;;;;;-144.48;100.00;62369.91;5012414;28;20030;-67
2022/09/03 01:23:57;;;;;;;4.28;1.55;;;;;;;-144.48;100.00;62369.91;5012215;28;20503;-67
2022/09/03 01:26:44;;;;;;;7.70;1.77;;;;;;;-144.48;100.00;62369.91;5011530;28;20038;-68
2022/09/03 01:29:16;;;;;;;3.38;1.40;;;;;;;-144.48;100.00;62369.91;5012713;28;20075;-68
2022/09/03 01:32:05;;;;;;;6.13;1.33;;;;;;;-144.48;100.00;62369.91;5012443;28;20061;-67
2022/09/03 01:34:58;;;;;;;4.53;1.50;;;;;;;-144.48;100.00;62369.91;5012720;28;20033;-66
2022/09/03 01:37:29;;;;;;;3.28;1.58;;;;;;;-144.48;100.00;62369.91;4997993;28;20056;-66
2022/09/03 01:40:19;;;;;;;8.52;1.52;;;;;;;-144.48;100.00;62369.91;5012217;28;20018;-67
2022/09/03 01:42:50;;;;;;;5.32;1.70;;;;;;;-144.48;100.00;62369.91;5012529;28;20026;-68
2022/09/03 01:45:39;;;;;;;3.53;1.48;;;;;;;-144.48;100.00;62369.91;5011134;28;20033;-68
2022/09/03 01:48:11;;;;;;;13.75;1.42;;;;;;;-144.48;100.00;62369.91;5011496;28;20083;-68
2022/09/03 01:50:56;;;;;;;3.95;1.17;;;;;;;-144.48;100.00;62369.91;5010018;28;20076;-67
2022/09/03 01:53:40;;;;;;;10.45;2.60;;;;;;;-144.48;100.00;62369.91;5011483;28;20099;-65
2022/09/03 01:56:27;;;;;;;2.97;1.40;;;;;;;-144.48;100.00;62369.91;5010401;28;20064;-65
2022/09/03 01:59:02;;;;;;;6.88;1.92;;;;;;;-144.48;100.00;62369.91;5011568;28;20057;-66
2022/09/03 02:01:57;;;;;;;2.45;1.17;;;;;;;-144.48;100.00;62369.91;5010826;28;20188;-66
2022/09/03 02:04:25;;;;;;;5.10;1.65;;;;;;;-144.48;100.00;62369.91;5008489;28;20680;-65
2022/09/03 02:06:51;;;;;;;5.00;1.52;;;;;;;-144.48;100.00;62369.91;5010337;28;20030;-65
2022/09/03 02:09:18;;;;;;;4.75;1.50;;;;;;;-144.48;100.00;62369.91;5009743;28;20472;-68
2022/09/03 02:11:50;;;;;;;5.22;1.67;;;;;;;-144.48;100.00;62369.91;5007564;28;20539;-68
2022/09/03 02:14:15;;;;;;;8.68;1.60;;;;;;;-144.48;100.00;62369.91;5011151;28;20106;-66
2022/09/03 02:16:43;;;;;;;8.80;1.52;;;;;;;-144.48;100.00;62369.91;5010217;28;20475;-68
2022/09/03 02:19:13;;;;;;;7.20;1.50;;;;;;;-144.48;100.00;62369.91;5009829;28;20066;-67
2022/09/03 02:21:46;;;;;;;2.78;1.42;;;;;;;-144.48;100.00;62369.91;5010020;28;20028;-67
2022/09/03 02:24:12;;;;;;;3.90;1.60;;;;;;;-144.48;100.00;62369.91;5010765;28;20022;-65
2022/09/03 02:26:38;;;;;;;3.95;1.98;;;;;;;-144.48;100.00;62369.91;5010583;28;20072;-67
2022/09/03 02:29:03;;;;;;;5.18;1.38;;;;;;;-144.48;100.00;62369.91;5010711;28;20473;-67
2022/09/03 02:31:29;;;;;;;10.07;2.10;;;;;;;-144.48;100.00;62369.91;5010602;28;20456;-66
2022/09/03 02:33:56;;;;;;;4.10;1.50;;;;;;;-144.48;100.00;62369.91;5010072;28;20026;-66
2022/09/03 02:36:30;;;;;;;4.38;1.70;;;;;;;-144.48;100.00;62369.91;5008942;28;20033;-66
2022/09/03 02:38:56;;;;;;;6.15;1.48;;;;;;;-144.48;100.00;62369.91;5009284;28;20087;-66
2022/09/03 02:41:24;;;;;;;4.30;1.70;;;;;;;-144.48;100.00;62369.91;5010559;28;20476;-70
2022/09/03 02:43:58;;;;;;;5.77;1.73;;;;;;;-144.48;100.00;62369.91;5010679;28;20025;-69
2022/09/03 02:46:31;;;;;;;4.75;1.67;;;;;;;-144.48;100.00;62369.91;5009821;28;20275;-66
2022/09/03 02:48:57;;;;;;;2.50;1.30;;;;;;;-144.48;100.00;62369.91;5010259;28;20083;-66
2022/09/03 02:51:22;;;;;;;4.30;1.60;;;;;;;-144.48;100.00;62369.91;5010245;28;20045;-67
2022/09/03 02:53:47;;;;;;;4.35;1.80;;;;;;;-144.48;100.00;62369.91;5010664;28;20026;-64
2022/09/03 02:56:13;;;;;;;5.35;1.83;;;;;;;-144.48;100.00;62369.91;5009949;28;20029;-68
2022/09/03 02:58:38;;;;;;;4.18;1.52;;;;;;;-144.48;100.00;62369.91;5008779;28;20030;-66
2022/09/03 03:01:04;;;;;;;3.00;1.55;;;;;;;-144.48;100.00;62369.91;5009969;28;20092;-67
2022/09/03 03:03:30;;;;;;;3.65;1.50;;;;;;;-144.48;100.00;62369.91;5010798;28;20037;-67
2022/09/03 03:05:57;;;;;;;4.35;1.88;;;;;;;-144.48;100.00;62369.91;5010571;28;20400;-68
2022/09/03 03:08:26;;;;;;;7.50;2.03;;;;;;;-144.48;100.00;62369.91;5010236;28;20025;-68
2022/09/03 03:10:55;;;;;;;9.77;1.60;;;;;;;-144.48;100.00;62369.91;5008057;28;20102;-67
2022/09/03 03:13:21;;;;;;;9.23;1.55;;;;;;;-144.48;100.00;62369.91;5009515;28;20061;-67
2022/09/03 03:15:47;;;;;;;9.98;1.70;;;;;;;-144.48;100.00;62369.91;5008156;28;20061;-67
2022/09/03 03:18:13;;;;;;;2.95;1.63;;;;;;;-144.48;100.00;62369.91;5009170;28;20113;-67
2022/09/03 03:20:40;;;;;;;4.68;2.03;;;;;;;-144.48;100.00;62369.91;5009635;28;20109;-65
2022/09/03 03:23:05;;;;;;;7.20;1.58;;;;;;;-144.48;100.00;62369.91;5009746;28;20503;-67
2022/09/03 03:25:35;;;;;;;7.25;2.25;;;;;;;-144.48;100.00;62369.91;5008204;28;20106;-67
2022/09/03 03:28:03;;;;;;;8.93;1.98;;;;;;;-144.48;100.00;62369.91;5008333;28;20387;-66
2022/09/03 03:30:28;;;;;;;4.60;1.80;;;;;;;-144.48;100.00;62369.91;5009703;28;20026;-68
2022/09/03 03:32:54;;;;;;;4.82;1.77;;;;;;;-144.48;100.00;62369.91;5009667;28;20133;-67
2022/09/03 03:35:20;;;;;;;14.50;2.00;;;;;;;-144.48;100.00;62369.91;5009877;28;20030;-66
2022/09/03 03:37:45;;;;;;;4.68;1.60;;;;;;;-144.48;100.00;62369.91;5008286;28;20026;-68
2022/09/03 03:40:11;;;;;;;6.95;1.80;;;;;;;-144.48;100.00;62369.91;5009737;28;20033;-66
2022/09/03 03:42:37;;;;;;;4.95;1.92;;;;;;;-144.48;100.00;62369.91;5009867;28;20032;-67
2022/09/03 03:45:03;;;;;;;4.47;1.80;;;;;;;-144.48;100.00;62369.91;5010479;28;20041;-68
2022/09/03 03:47:29;;;;;;;4.40;1.63;;;;;;;-144.48;100.00;62369.91;5009031;28;20095;-66
2022/09/03 03:49:56;;;;;;;9.45;2.00;;;;;;;-144.48;100.00;62369.91;5007915;28;20021;-67
2022/09/03 03:52:22;;;;;;;7.80;2.08;;;;;;;-144.48;100.00;62369.91;5009036;28;20408;-67
2022/09/03 03:54:49;;;;;;;6.88;2.13;;;;;;;-144.48;100.00;62369.91;5009217;28;20484;-66
2022/09/03 03:57:15;;;;;;;4.75;1.70;;;;;;;-144.48;100.00;62369.91;5008654;28;20033;-67
2022/09/03 03:59:40;;;;;;;5.63;2.25;;;;;;;-144.48;100.00;62369.91;5008861;28;20030;-66
2022/09/03 04:02:05;;;;;;;9.50;1.67;;;;;;;-144.48;100.00;62369.91;5007313;28;20033;-68
2022/09/03 04:04:31;;;;;;;9.50;2.13;;;;;;;-144.48;100.00;62369.91;5006163;28;20040;-68
2022/09/03 04:06:56;;;;;;;4.85;1.55;;;;;;;-144.48;100.00;62369.91;5007943;28;20032;-67
2022/09/03 04:09:22;;;;;;;3.60;1.67;;;;;;;-144.48;100.00;62369.91;5008256;28;20026;-69
2022/09/03 04:11:47;;;;;;;3.20;1.50;;;;;;;-144.48;100.00;62369.91;5006999;28;20060;-68
2022/09/03 04:14:12;;;;;;;5.45;1.90;;;;;;;-144.48;100.00;62369.91;5008476;28;20022;-68
2022/09/03 04:16:38;;;;;;;7.13;1.60;;;;;;;-144.48;100.00;62369.91;5009062;28;20561;-67
2022/09/03 04:19:04;;;;;;;4.85;2.03;;;;;;;-144.48;100.00;62369.91;5009914;28;20038;-66
2022/09/03 04:21:30;;;;;;;5.05;1.60;;;;;;;-144.48;100.00;62369.91;5009768;28;20116;-67
2022/09/03 04:23:56;;;;;;;5.53;1.70;;;;;;;-144.48;100.00;62369.91;5008829;28;20434;-65
2022/09/03 04:26:31;;;;;;;3.28;1.50;;;;;;;-144.48;100.00;62369.91;5008891;28;20028;-67
2022/09/03 04:28:58;;;;;;;7.63;2.10;;;;;;;-144.48;100.00;62369.91;5007756;28;20062;-66
2022/09/03 04:31:23;;;;;;;3.97;1.90;;;;;;;-144.48;100.00;62369.91;5009254;28;20029;-68
2022/09/03 04:33:50;;;;;;;6.38;1.90;;;;;;;-144.48;100.00;62369.91;5008334;28;20025;-66
2022/09/03 04:36:18;;;;;;;4.45;1.50;;;;;;;-144.48;100.00;62369.91;5008960;28;20041;-67
2022/09/03 04:38:45;;;;;;;5.38;2.10;;;;;;;-144.48;100.00;62369.91;5008306;28;20033;-65
2022/09/03 04:41:16;;;;;;;6.13;2.35;;;;;;;-144.48;100.00;62369.91;5012583;28;20501;-67
2022/09/03 04:43:42;;;;;;;3.83;1.73;;;;;;;-144.48;100.00;62369.91;5012151;28;20550;-67
2022/09/03 04:46:10;;;;;;;4.03;1.90;;;;;;;-144.48;100.00;62369.91;5001780;28;20117;-68
2022/09/03 04:48:36;;;;;;;8.27;2.28;;;;;;;-144.48;100.00;62369.91;5006794;28;20029;-66
2022/09/03 04:51:06;;;;;;;6.82;1.98;;;;;;;-144.48;100.00;62369.91;5010273;28;20092;-68
2022/09/03 04:53:36;;;;;;;5.70;1.80;;;;;;;-144.48;100.00;62369.91;5004873;28;20025;-67
2022/09/03 04:56:03;;;;;;;5.35;2.40;;;;;;;-144.48;100.00;62369.91;4994276;28;20107;-66
2022/09/03 04:58:28;;;;;;;10.68;2.28;;;;;;;-144.48;100.00;62369.91;5011262;28;20030;-67
2022/09/03 05:00:53;;;;;;;6.85;2.38;;;;;;;-144.48;100.00;62369.91;5012125;28;20022;-65
2022/09/03 05:03:20;;;;;;;6.47;1.67;;;;;;;-144.48;100.00;62369.91;5012286;28;20044;-66
2022/09/03 05:05:54;;;;;;;5.60;1.70;;;;;;;-144.48;100.00;62369.91;5011729;28;20026;-66
2022/09/03 05:08:20;;;;;;;4.75;2.05;;;;;;;-144.48;100.00;62369.91;5011163;28;20064;-68
2022/09/03 05:10:45;;;;;;;7.03;2.08;;;;;;;-144.48;100.00;62369.91;5008662;28;20392;-66
2022/09/03 05:13:11;;;;;;;4.70;2.08;;;;;;;-144.48;100.00;62369.91;5010689;28;20026;-69
2022/09/03 05:15:36;;;;;;;6.85;2.30;;;;;;;-144.48;100.00;62369.91;5010206;28;20029;-69
2022/09/03 05:18:02;;;;;;;5.07;1.80;;;;;;;-144.48;100.00;62369.91;5011274;28;20545;-66
2022/09/03 05:20:29;;;;;;;6.45;1.70;;;;;;;-144.48;100.00;62369.91;5011897;28;20573;-67
2022/09/03 05:23:02;;;;;;;8.45;1.80;;;;;;;-144.48;100.00;62369.91;5012339;28;20068;-67
2022/09/03 05:25:30;;;;;;;6.05;1.77;;;;;;;-144.48;100.00;62369.91;5012616;28;20484;-68
2022/09/03 05:27:56;;;;;;;4.22;1.80;;;;;;;-144.48;100.00;62369.91;5011950;28;20033;-67
2022/09/03 05:30:22;;;;;;;5.72;2.22;;;;;;;-144.48;100.00;62369.91;5012420;28;20026;-67
2022/09/03 05:32:48;;;;;;;4.53;1.92;;;;;;;-144.48;100.00;62369.91;5006647;28;20492;-67
2022/09/03 05:35:13;;;;;;;4.43;1.80;;;;;;;-144.48;100.00;62369.91;5005157;28;20018;-68
2022/09/03 05:37:39;;;;;;;4.47;1.88;;;;;;;-144.48;100.00;62369.91;5010577;28;20067;-68
2022/09/03 05:40:09;;;;;;;9.25;2.47;;;;;;;-144.48;100.00;62369.91;5005009;28;20474;-67
2022/09/03 05:42:36;;;;;;;5.18;1.95;;;;;;;-144.48;100.00;62369.91;5010485;28;20041;-67
2022/09/03 05:45:03;;;;;;;4.80;1.80;;;;;;;-144.48;100.00;62369.91;5011768;28;20396;-69
2022/09/03 05:47:29;;;;;;;5.03;1.98;;;;;;;-144.48;100.00;62369.91;5010690;28;20061;-66
2022/09/03 05:49:54;;;;;;;6.10;1.83;;;;;;;-144.48;100.00;62369.91;5024988;22;20144;-66
2022/09/03 05:52:22;;;;;;;4.20;2.00;;;;;;;-144.48;100.00;62369.91;5005518;28;20384;-67
2022/09/03 05:54:47;;;;;;;6.05;2.22;;;;;;;-144.48;100.00;62369.91;5007816;28;20053;-68
2022/09/03 05:57:13;;;;;;;8.88;2.13;;;;;;;-144.48;100.00;62369.91;5011635;28;20152;-69
2022/09/03 05:59:38;;;;;;;8.40;1.92;;;;;;;-144.48;100.00;62369.91;5021234;28;20403;-69
2022/09/03 06:02:04;;;;;;;4.20;1.90;;;;;;;-144.48;100.00;62369.91;5014481;28;20026;-68
2022/09/03 06:04:29;;;;;;;4.15;1.80;;;;;;;-144.48;100.00;62369.91;5009559;28;20029;-68
2022/09/03 06:06:55;;;;;;;9.90;2.47;;;;;;;-144.48;100.00;62369.91;5013903;28;20467;-68
2022/09/03 06:09:21;;;;;;;4.78;1.92;;;;;;;-144.48;100.00;62369.91;5009292;28;20030;-68
2022/09/03 06:11:48;;;;;;;4.97;2.00;;;;;;;-144.48;100.00;62369.91;5016933;28;20030;-68
2022/09/03 06:14:15;;;;;;;17.08;2.35;;;;;;;-144.48;100.00;62369.91;5010722;28;20189;-68
2022/09/03 06:16:47;;;;;;;4.28;1.73;;;;;;;-144.48;100.00;62369.91;5017150;28;20073;-69
2022/09/03 06:19:13;;;;;;;4.88;1.95;;;;;;;-144.48;100.00;62369.91;5015245;28;20037;-69
2022/09/03 06:21:41;;;;;;;7.30;2.10;;;;;;;-144.48;100.00;62369.91;5005369;28;20026;-68
2022/09/03 06:24:08;;;;;;;8.02;1.90;;;;;;;-144.48;100.00;62369.91;5003407;28;20117;-68
2022/09/03 06:26:33;;;;;;;4.55;1.77;;;;;;;-144.48;100.00;62369.91;5018355;28;20108;-69
2022/09/03 06:28:59;;;;;;;7.43;2.00;;;;;;;-144.48;100.00;62369.91;5027598;28;20625;-70
2022/09/03 06:31:25;;;;;;;7.40;1.80;;;;;;;-144.48;100.00;62369.91;5018242;28;20021;-69
2022/09/03 06:33:52;;;;;;;5.18;1.85;;;;;;;-144.48;100.00;62369.91;5016117;28;20046;-69
2022/09/03 06:36:19;;;;;;;6.95;1.70;;;;;;;-144.48;100.00;62369.91;5008946;28;20018;-69
2022/09/03 06:38:46;;;;;;;6.20;1.67;;;;;;;-144.48;100.00;62369.91;5002591;28;20077;-69
2022/09/03 06:41:19;;;;;;;4.70;1.80;;;;;;;-144.48;100.00;62369.91;4995669;28;20566;-68
2022/09/03 06:43:46;;;;;;;12.07;1.98;;;;;;;-144.48;100.00;62369.91;5008685;28;20514;-69
2022/09/03 06:46:15;;;;;;;5.70;1.70;;;;;;;-144.48;100.00;62369.91;4996264;28;20030;-68
2022/09/03 06:48:41;;;;;;;9.70;1.83;;;;;;;-144.48;100.00;62369.91;5004381;28;20034;-68
2022/09/03 06:51:12;;;;;;;10.85;2.03;;;;;;;-144.48;100.00;62369.91;5010290;28;20040;-67
2022/09/03 06:53:40;;;;;;;4.18;1.90;;;;;;;-144.48;100.00;62369.91;5006270;28;20030;-68
2022/09/03 06:56:11;;;;;;;5.82;1.90;;;;;;;-144.48;100.00;62369.91;5010931;28;20026;-68
2022/09/03 06:58:41;;;;;;;7.72;1.63;;;;;;;-144.48;100.00;62369.91;5005312;28;20043;-68
2022/09/03 07:01:09;;;;;;;4.80;1.63;;;;;;;-144.48;100.00;62369.91;5001878;28;20022;-69
2022/09/03 07:03:36;;;;;;;5.07;1.70;;;;;;;-144.48;100.00;62369.91;5001590;28;20422;-69
2022/09/03 07:06:11;;;;;;;3.38;1.55;;;;;;;-144.48;100.00;62369.91;5007180;28;20029;-68
2022/09/03 07:08:36;;;;;;;9.63;1.85;;;;;;;-144.48;100.00;62369.91;5009754;28;20111;-69
2022/09/03 07:11:08;;;;;;;8.07;1.73;;;;;;;-144.48;100.00;62369.91;5004270;28;20026;-69
2022/09/03 07:13:34;;;;;;;4.03;2.20;;;;;;;-144.48;100.00;62369.91;5001007;28;20038;-69
2022/09/03 07:16:09;;;;;;;7.22;1.58;;;;;;;-144.48;100.00;62369.91;5012960;28;20033;-69
2022/09/03 07:18:35;;;;;;;9.48;1.70;;;;;;;-144.48;100.00;62369.91;5012659;28;20049;-70
2022/09/03 07:21:04;;;;;;;8.65;1.50;;;;;;;-144.48;100.00;62369.91;5024298;28;20022;-69
2022/09/03 07:23:30;;;;;;;15.20;1.60;;;;;;;-144.48;100.00;62369.91;5010369;28;20037;-68
2022/09/03 07:25:57;;;;;;;8.73;1.58;;;;;;;-144.48;100.00;62369.91;4997729;28;20038;-69
2022/09/03 07:28:23;;;;;;;10.65;1.83;;;;;;;-144.48;100.00;62369.91;5009348;28;20026;-69
2022/09/03 07:30:50;;;;;;;5.80;1.75;;;;;;;-144.48;100.00;62369.91;5022404;28;20050;-70
2022/09/03 07:33:16;;;;;;;8.27;1.48;;;;;;;-144.48;100.00;62369.91;5008089;28;20378;-70
2022/09/03 07:35:42;;;;;;;4.35;1.98;;;;;;;-144.48;100.00;62369.91;5001025;28;20037;-72
2022/09/03 07:38:08;;;;;;;7.38;1.67;;;;;;;-144.48;100.00;62369.91;5009244;28;20022;-68
2022/09/03 07:40:34;;;;;;;5.90;1.60;;;;;;;-144.48;100.00;62369.91;5016429;28;20021;-69
2022/09/03 07:43:02;;;;;;;3.28;1.70;;;;;;;-144.48;100.00;62369.91;5016299;28;20041;-70
2022/09/03 07:45:28;;;;;;;5.35;1.60;;;;;;;-144.48;100.00;62369.91;5009967;28;20036;-69
2022/09/03 07:47:53;;;;;;;8.40;1.40;;;;;;;-144.48;100.00;62369.91;5016109;28;20018;-70
2022/09/03 07:50:19;;;;;;;5.13;1.77;;;;;;;-144.48;100.00;62369.91;5009383;28;20567;-69
2022/09/03 07:52:44;;;;;;;9.60;1.42;;;;;;;-144.48;100.00;62369.91;5002444;28;20083;-68
2022/09/03 07:55:10;;;;;;;5.35;1.70;;;;;;;-144.48;100.00;62369.91;5021044;28;20034;-69
2022/09/03 07:57:36;;;;;;;6.07;1.77;;;;;;;-144.48;100.00;62369.91;5006127;28;20107;-71
2022/09/03 08:00:02;;;;;;;4.53;1.58;;;;;;;-144.48;100.00;62369.91;5006191;28;20204;-70
2022/09/03 08:02:27;;;;;;;6.60;1.63;;;;;;;-144.48;100.00;62369.91;5013755;28;20018;-69
2022/09/03 08:04:52;;;;;;;4.78;1.77;;;;;;;-144.48;100.00;62369.91;4997611;28;20563;-69
2022/09/03 08:07:18;;;;;;;4.32;1.50;;;;;;;-144.48;100.00;62369.91;5010001;28;20032;-69
2022/09/03 08:09:43;;;;;;;8.75;1.95;;;;;;;-144.48;100.00;62369.91;5008784;28;20028;-69
2022/09/03 08:12:08;;;;;;;5.53;1.52;;;;;;;-144.48;100.00;62369.91;4999919;28;20410;-69
2022/09/03 08:14:34;;;;;;;6.90;2.20;;;;;;;-144.48;100.00;62369.91;5015429;28;20026;-70
2022/09/03 08:16:59;;;;;;;3.42;1.52;;;;;;;-144.48;100.00;62369.91;5027304;28;20533;-70
2022/09/03 08:19:24;;;;;;;6.05;1.63;;;;;;;-144.48;100.00;62369.91;5034125;28;20500;-69
2022/09/03 08:21:50;;;;;;;10.38;1.52;;;;;;;-144.48;100.00;62369.91;5011956;28;20115;-68
2022/09/03 08:24:19;;;;;;;6.55;1.67;;;;;;;-144.48;100.00;62369.91;5001981;28;20488;-69
2022/09/03 08:26:45;;;;;;;4.35;1.35;;;;;;;-144.48;100.00;62369.91;5014409;28;20395;-69
2022/09/03 08:29:10;;;;;;;17.70;1.98;;;;;;;-144.48;100.00;62369.91;5010267;28;20492;-70
2022/09/03 08:31:36;;;;;;;3.67;1.45;;;;;;;-144.48;100.00;62369.91;5013161;28;20064;-69
2022/09/03 08:34:05;;;;;;;3.85;1.50;;;;;;;-144.48;100.00;62369.91;5013277;28;20487;-72
2022/09/03 08:36:32;;;;;;;7.70;1.42;;;;;;;-144.48;100.00;62369.91;5020965;28;20537;-71
2022/09/03 08:39:03;;;;;;;8.50;1.50;;;;;;;-144.48;100.00;62369.91;5035200;28;20120;-71
2022/09/03 08:41:50;;;;;;;4.18;1.40;;;;;;;-144.48;100.00;62369.91;5022217;28;20032;-72
2022/09/03 08:44:27;;;;;;;4.35;1.70;;;;;;;-144.48;100.00;62369.91;5022076;28;20025;-71
2022/09/03 08:46:52;;;;;;;4.03;1.52;;;;;;;-144.48;100.00;62369.91;5024161;28;20029;-71
2022/09/03 08:49:39;;;;;;;7.57;1.73;;;;;;;-144.48;100.00;62369.91;5029056;28;20029;-71
2022/09/03 08:52:20;;;;;;;9.38;2.03;;;;;;;-144.48;100.00;62369.91;5014217;28;20515;-72
2022/09/03 08:54:48;;;;;;;4.28;1.77;;;;;;;-144.48;100.00;62369.91;5015455;28;20026;-72
2022/09/03 08:57:15;;;;;;;5.43;1.70;;;;;;;-144.48;100.00;62369.91;5015034;28;20032;-72
2022/09/03 08:59:40;;;;;;;8.40;1.88;;;;;;;-144.48;100.00;62369.91;5025639;28;20031;-73
2022/09/03 09:02:34;;;;;;;6.03;1.80;;;;;;;-144.48;100.00;62369.91;5020946;28;20021;-72
2022/09/03 09:05:11;;;;;;;7.93;1.55;;;;;;;-144.48;100.00;62369.91;5021064;28;20022;-72
2022/09/03 09:07:44;;;;;;;2.65;1.40;;;;;;;-144.48;100.00;62369.91;5014855;28;20413;-70
2022/09/03 09:10:22;;;;;;;13.45;1.80;;;;;;;-144.48;100.00;62369.91;5014892;28;20021;-73
2022/09/03 09:13:18;;;;;;;4.57;1.67;;;;;;;-144.48;100.00;62369.91;5032394;28;20032;-72
2022/09/03 09:15:46;;;;;;;4.43;1.50;;;;;;;-144.48;100.00;62369.91;5018655;28;20041;-72
2022/09/03 09:18:30;;;;;;;9.55;1.80;;;;;;;-144.48;100.00;62369.91;5023791;28;20388;-72
2022/09/03 09:21:16;;;;;;;9.52;2.33;;;;;;;-144.48;100.00;62369.91;5015270;28;20492;-71
2022/09/03 09:23:45;;;;;;;7.93;1.88;;;;;;;-144.48;100.00;62369.91;5015231;28;20113;-72
2022/09/03 09:26:14;;;;;;;4.03;1.65;;;;;;;-144.48;100.00;62369.91;5020120;28;20017;-73
2022/09/03 09:28:44;;;;;;;5.57;1.75;;;;;;;-144.48;100.00;62369.91;5018095;28;20426;-72
2022/09/03 09:31:14;;;;;;;8.32;1.70;;;;;;;-144.48;100.00;62369.91;5029999;28;20169;-72
2022/09/03 09:33:40;;;;;;;2.72;1.33;;;;;;;-144.48;100.00;62369.91;5018471;28;20522;-73
2022/09/03 09:36:10;;;;;;;8.82;1.60;;;;;;;-144.48;100.00;62369.91;5031782;28;20026;-71
2022/09/03 09:38:38;;;;;;;5.00;1.77;;;;;;;-144.48;100.00;62369.91;5014944;28;20092;-72
2022/09/03 09:41:18;;;;;;;5.07;1.60;;;;;;;-144.48;100.00;62369.91;5022226;28;20033;-72
2022/09/03 09:43:46;;;;;;;5.78;1.50;;;;;;;-144.48;100.00;62369.91;5018242;28;20312;-72
2022/09/03 09:46:39;;;;;;;3.88;1.52;;;;;;;-144.48;100.00;62369.91;5029901;28;20515;-71
2022/09/03 09:49:30;;;;;;;4.53;1.77;;;;;;;-144.48;100.00;62369.91;5009103;28;20048;-73
2022/09/03 09:52:06;;;;;;;6.82;1.38;;;;;;;-144.48;100.00;62369.91;5018289;28;20026;-72
2022/09/03 09:54:32;;;;;;;11.80;1.60;;;;;;;-144.48;100.00;62369.91;5016835;28;20030;-72
2022/09/03 09:57:00;;;;;;;10.68;1.40;;;;;;;-144.48;100.00;62369.91;5023045;28;20033;-75
2022/09/03 09:59:26;;;;;;;3.30;1.33;;;;;;;-144.48;100.00;62369.91;5024062;28;20112;-72
2022/09/03 10:02:05;;;;;;;9.18;1.63;;;;;;;-144.48;100.00;62369.91;5010764;28;20113;-72
2022/09/03 10:04:31;;;;;;;6.00;1.30;;;;;;;-144.48;100.00;62369.91;5013486;28;20021;-74
2022/09/03 10:07:25;;;;;;;6.07;1.60;;;;;;;-144.48;100.00;62369.91;5030158;28;20025;-74
2022/09/03 10:10:06;;;;;;;5.88;1.92;;;;;;;-144.48;100.00;62369.91;5023172;28;20124;-73
2022/09/03 10:12:49;;;;;;;12.80;1.88;;;;;;;-144.48;100.00;62369.91;5024112;28;20038;-72
2022/09/03 10:15:35;;;;;;;4.10;1.63;;;;;;;-144.48;100.00;62369.91;5012976;28;20033;-73
2022/09/03 10:18:33;;;;;;;5.30;1.30;;;;;;;-144.48;100.00;62369.91;5019103;28;20025;-72
2022/09/03 10:21:14;;;;;;;4.10;1.40;;;;;;;-144.48;100.00;62369.91;5031102;28;20025;-72
2022/09/03 10:23:56;;;;;;;4.53;1.65;;;;;;;-144.48;100.00;62369.91;5030067;28;20022;-73
2022/09/03 10:26:28;;;;;;;5.75;1.55;;;;;;;-144.48;100.00;62369.91;5011967;28;20026;-72
2022/09/03 10:28:57;;;;;;;11.10;1.98;;;;;;;-144.48;100.00;62369.91;5015929;28;20032;-73
2022/09/03 10:31:35;;;;;;;7.47;1.70;;;;;;;-144.48;100.00;62369.91;5028864;28;20017;-73
2022/09/03 10:34:19;;;;;;;4.88;1.70;;;;;;;-144.48;100.00;62369.91;5018087;28;20033;-74
2022/09/03 10:37:03;;;;;;;3.35;1.50;;;;;;;-144.48;100.00;62369.91;5012450;28;20104;-73
2022/09/03 10:39:57;;;;;;;13.13;1.48;;;;;;;-144.48;100.00;62369.91;5011098;28;20021;-73
2022/09/03 10:42:26;;;;;;;5.93;1.40;;;;;;;-144.48;100.00;62369.91;5013462;28;20037;-73
2022/09/03 10:45:13;;;;;;;10.23;1.67;;;;;;;-144.48;100.00;62369.91;5013505;28;20047;-73
2022/09/03 10:48:15;;;;;;;10.32;1.67;;;;;;;-144.48;100.00;62369.91;5018720;28;20057;-73
2022/09/03 10:51:13;;;;;;;5.30;1.95;;;;;;;-144.48;100.00;62369.91;5010649;28;20641;-72
2022/09/03 10:54:00;;;;;;;3.63;1.20;;;;;;;-144.48;100.00;62369.91;5001976;28;20046;-73
2022/09/03 10:57:11;;;;;;;4.38;1.63;;;;;;;-144.48;100.00;62369.91;5026586;28;20435;-73
2022/09/03 10:59:50;;;;;;;4.53;1.50;;;;;;;-144.48;100.00;62369.91;5026774;28;20057;-72
2022/09/03 11:02:38;;;;;;;5.32;1.73;;;;;;;-144.48;100.00;62369.91;5009356;28;20125;-73
2022/09/03 11:05:28;;;;;;;2.47;1.10;;;;;;;-144.48;100.00;62369.91;5017102;28;20025;-73
2022/09/03 11:08:05;;;;;;;5.78;1.60;;;;;;;-144.48;100.00;62369.91;5029751;28;20183;-72
2022/09/03 11:10:33;;;;;;;4.50;1.40;;;;;;;-144.48;100.00;62369.91;5004572;28;20034;-73
2022/09/03 11:13:08;;;;;;;7.40;1.43;;;;;;;-144.48;100.00;62369.91;5028938;28;20226;-72
2022/09/03 11:15:39;;;;;;;7.28;2.47;;;;;;;-144.48;100.00;62369.91;5027816;28;20079;-72
2022/09/03 11:18:17;;;;;;;6.38;1.50;;;;;;;-144.48;100.00;62369.91;5009619;28;20137;-73
2022/09/03 11:20:43;;;;;;;4.22;1.52;;;;;;;-144.48;100.00;62369.91;5025003;28;20028;-73
2022/09/03 11:23:12;;;;;;;7.85;1.85;;;;;;;-144.48;100.00;62369.91;5029876;28;20025;-72
2022/09/03 11:25:43;;;;;;;;;;;;;;;-144.48;100.00;62369.91;5025492;28;20022;-73
2022/09/03 11:28:16;;;;;;;3.28;1.52;;;;;;;-144.48;100.00;62369.91;5009811;28;20018;-72
2022/09/03 11:31:04;;;;;;;4.53;1.70;;;;;;;-144.48;100.00;62369.91;5023331;28;20052;-73